sensor_id;sensor_type;location;lat;lon;timestamp;temperature;humidity
61841;DHT22;47773;53.174;6.614;2023-02-23T00:01:23;8.40;99.90
61841;DHT22;47773;53.174;6.614;2023-02-23T00:03:52;8.40;99.90
61841;DHT22;47773;53.174;6.614;2023-02-23T00:06:19;8.40;99.90
61841;DHT22;47773;53.174;6.614;2023-02-23T00:08:45;8.40;99.90
61841;DHT22;47773;53.174;6.614;2023-02-23T00:11:13;8.40;99.90
61841;DHT22;47773;53.174;6.614;2023-02-23T00:13:40;8.40;99.90
61841;DHT22;47773;53.174;6.614;2023-02-23T00:16:09;8.40;99.90
61841;DHT22;47773;53.174;6.614;2023-02-23T00:18:37;8.40;99.90
61841;DHT22;47773;53.174;6.614;2023-02-23T00:21:29;8.40;99.90
61841;DHT22;47773;53.174;6.614;2023-02-23T00:24:02;8.40;99.90
61841;DHT22;47773;53.174;6.614;2023-02-23T00:26:30;8.40;99.90
61841;DHT22;47773;53.174;6.614;2023-02-23T00:29:14;8.30;99.90
61841;DHT22;47773;53.174;6.614;2023-02-23T00:31:44;8.40;99.90
61841;DHT22;47773;53.174;6.614;2023-02-23T00:34:11;8.40;99.90
61841;DHT22;47773;53.174;6.614;2023-02-23T00:36:38;8.40;99.90
61841;DHT22;47773;53.174;6.614;2023-02-23T00:39:07;8.50;99.90
61841;DHT22;47773;53.174;6.614;2023-02-23T00:41:46;8.50;99.90
61841;DHT22;47773;53.174;6.614;2023-02-23T00:44:12;8.50;99.90
61841;DHT22;47773;53.174;6.614;2023-02-23T00:46:40;8.50;99.90
61841;DHT22;47773;53.174;6.614;2023-02-23T00:49:09;8.60;99.90
61841;DHT22;47773;53.174;6.614;2023-02-23T00:51:35;8.60;99.90
61841;DHT22;47773;53.174;6.614;2023-02-23T00:54:02;8.60;99.90
61841;DHT22;47773;53.174;6.614;2023-02-23T00:56:28;8.60;99.90
61841;DHT22;47773;53.174;6.614;2023-02-23T00:58:54;8.60;99.90
61841;DHT22;47773;53.174;6.614;2023-02-23T01:01:20;8.60;99.90
61841;DHT22;47773;53.174;6.614;2023-02-23T01:03:46;8.60;99.90
61841;DHT22;47773;53.174;6.614;2023-02-23T01:06:13;8.60;99.90
61841;DHT22;47773;53.174;6.614;2023-02-23T01:08:45;8.50;99.90
61841;DHT22;47773;53.174;6.614;2023-02-23T01:11:21;8.50;99.90
61841;DHT22;47773;53.174;6.614;2023-02-23T01:13:51;8.50;99.90
61841;DHT22;47773;53.174;6.614;2023-02-23T01:16:20;8.50;99.90
61841;DHT22;47773;53.174;6.614;2023-02-23T01:18:46;8.50;99.90
61841;DHT22;47773;53.174;6.614;2023-02-23T01:21:19;8.60;99.90
61841;DHT22;47773;53.174;6.614;2023-02-23T01:23:45;8.60;99.90
61841;DHT22;47773;53.174;6.614;2023-02-23T01:26:17;8.60;99.90
61841;DHT22;47773;53.174;6.614;2023-02-23T01:28:51;8.60;99.90
61841;DHT22;47773;53.174;6.614;2023-02-23T01:31:17;8.60;99.90
61841;DHT22;47773;53.174;6.614;2023-02-23T01:33:45;8.60;99.90
61841;DHT22;47773;53.174;6.614;2023-02-23T01:36:11;8.60;99.90
61841;DHT22;47773;53.174;6.614;2023-02-23T01:38:40;8.60;99.90
61841;DHT22;47773;53.174;6.614;2023-02-23T01:41:06;8.60;99.90
61841;DHT22;47773;53.174;6.614;2023-02-23T01:43:33;8.60;99.90
61841;DHT22;47773;53.174;6.614;2023-02-23T01:45:59;8.60;99.90
61841;DHT22;47773;53.174;6.614;2023-02-23T01:48:31;8.60;99.90
61841;DHT22;47773;53.174;6.614;2023-02-23T01:51:11;8.60;99.90
61841;DHT22;47773;53.174;6.614;2023-02-23T01:53:42;8.50;99.90
61841;DHT22;47773;53.174;6.614;2023-02-23T01:56:15;8.50;99.90
61841;DHT22;47773;53.174;6.614;2023-02-23T01:58:45;8.50;99.90
61841;DHT22;47773;53.174;6.614;2023-02-23T02:01:12;8.50;99.90
61841;DHT22;47773;53.174;6.614;2023-02-23T02:03:47;8.50;99.90
61841;DHT22;47773;53.174;6.614;2023-02-23T02:06:17;8.50;99.90
61841;DHT22;47773;53.174;6.614;2023-02-23T02:08:50;8.50;99.90
61841;DHT22;47773;53.174;6.614;2023-02-23T02:11:21;8.50;99.90
61841;DHT22;47773;53.174;6.614;2023-02-23T02:14:05;8.50;99.90
61841;DHT22;47773;53.174;6.614;2023-02-23T02:25:23;8.40;99.90
61841;DHT22;47773;53.174;6.614;2023-02-23T02:36:38;8.40;99.90
61841;DHT22;47773;53.174;6.614;2023-02-23T02:39:36;8.50;99.90
61841;DHT22;47773;53.174;6.614;2023-02-23T02:42:21;8.50;99.90
61841;DHT22;47773;53.174;6.614;2023-02-23T02:50:09;8.60;99.90
61841;DHT22;47773;53.174;6.614;2023-02-23T02:53:02;8.60;99.90
61841;DHT22;47773;53.174;6.614;2023-02-23T02:55:31;8.60;99.90
61841;DHT22;47773;53.174;6.614;2023-02-23T02:58:00;8.60;99.90
61841;DHT22;47773;53.174;6.614;2023-02-23T03:00:40;8.60;99.90
61841;DHT22;47773;53.174;6.614;2023-02-23T03:03:42;8.60;99.90
61841;DHT22;47773;53.174;6.614;2023-02-23T03:09:53;8.60;99.90
61841;DHT22;47773;53.174;6.614;2023-02-23T03:13:17;8.60;99.90
61841;DHT22;47773;53.174;6.614;2023-02-23T03:19:30;8.60;99.90
61841;DHT22;47773;53.174;6.614;2023-02-23T03:22:33;8.60;99.90
61841;DHT22;47773;53.174;6.614;2023-02-23T03:25:34;8.60;99.90
61841;DHT22;47773;53.174;6.614;2023-02-23T03:28:30;8.60;99.90
61841;DHT22;47773;53.174;6.614;2023-02-23T03:34:30;8.50;99.90
61841;DHT22;47773;53.174;6.614;2023-02-23T03:37:26;8.50;99.90
61841;DHT22;47773;53.174;6.614;2023-02-23T03:40:17;8.50;99.90
61841;DHT22;47773;53.174;6.614;2023-02-23T03:43:07;8.60;99.90
61841;DHT22;47773;53.174;6.614;2023-02-23T03:45:55;8.50;99.90
61841;DHT22;47773;53.174;6.614;2023-02-23T03:48:42;8.60;99.90
61841;DHT22;47773;53.174;6.614;2023-02-23T03:51:30;8.60;99.90
61841;DHT22;47773;53.174;6.614;2023-02-23T03:54:19;8.60;99.90
61841;DHT22;47773;53.174;6.614;2023-02-23T03:57:09;8.60;99.90
61841;DHT22;47773;53.174;6.614;2023-02-23T03:59:58;8.60;99.90
61841;DHT22;47773;53.174;6.614;2023-02-23T04:02:45;8.60;99.90
61841;DHT22;47773;53.174;6.614;2023-02-23T04:05:32;8.60;99.90
61841;DHT22;47773;53.174;6.614;2023-02-23T04:08:18;8.60;99.90
61841;DHT22;47773;53.174;6.614;2023-02-23T04:11:59;8.60;99.90
61841;DHT22;47773;53.174;6.614;2023-02-23T04:14:40;8.50;99.90
61841;DHT22;47773;53.174;6.614;2023-02-23T04:17:07;8.60;99.90
61841;DHT22;47773;53.174;6.614;2023-02-23T04:19:35;8.50;99.90
61841;DHT22;47773;53.174;6.614;2023-02-23T04:22:01;8.50;99.90
61841;DHT22;47773;53.174;6.614;2023-02-23T04:24:26;8.50;99.90
61841;DHT22;47773;53.174;6.614;2023-02-23T04:26:52;8.40;99.90
61841;DHT22;47773;53.174;6.614;2023-02-23T04:29:18;8.50;99.90
61841;DHT22;47773;53.174;6.614;2023-02-23T04:31:44;8.40;99.90
61841;DHT22;47773;53.174;6.614;2023-02-23T04:34:10;8.40;99.90
61841;DHT22;47773;53.174;6.614;2023-02-23T04:36:36;8.40;99.90
61841;DHT22;47773;53.174;6.614;2023-02-23T04:39:02;8.40;99.90
61841;DHT22;47773;53.174;6.614;2023-02-23T04:41:27;8.40;99.90
61841;DHT22;47773;53.174;6.614;2023-02-23T04:43:53;8.40;99.90
61841;DHT22;47773;53.174;6.614;2023-02-23T04:46:19;8.40;99.90
61841;DHT22;47773;53.174;6.614;2023-02-23T04:48:44;8.40;99.90
61841;DHT22;47773;53.174;6.614;2023-02-23T04:51:11;8.30;99.90
61841;DHT22;47773;53.174;6.614;2023-02-23T04:53:37;8.40;99.90
61841;DHT22;47773;53.174;6.614;2023-02-23T04:56:04;8.40;99.90
61841;DHT22;47773;53.174;6.614;2023-02-23T04:58:30;8.40;99.90
61841;DHT22;47773;53.174;6.614;2023-02-23T05:01:04;8.40;99.90
61841;DHT22;47773;53.174;6.614;2023-02-23T05:03:30;8.50;99.90
61841;DHT22;47773;53.174;6.614;2023-02-23T05:05:56;8.40;99.90
61841;DHT22;47773;53.174;6.614;2023-02-23T05:08:21;8.40;99.90
61841;DHT22;47773;53.174;6.614;2023-02-23T05:10:47;8.40;99.90
61841;DHT22;47773;53.174;6.614;2023-02-23T05:13:12;8.40;99.90
61841;DHT22;47773;53.174;6.614;2023-02-23T05:15:38;8.40;99.90
61841;DHT22;47773;53.174;6.614;2023-02-23T05:18:04;8.40;99.90
61841;DHT22;47773;53.174;6.614;2023-02-23T05:20:29;8.40;99.90
61841;DHT22;47773;53.174;6.614;2023-02-23T05:22:56;8.40;99.90
61841;DHT22;47773;53.174;6.614;2023-02-23T05:25:23;8.40;99.90
61841;DHT22;47773;53.174;6.614;2023-02-23T05:27:48;8.50;99.90
61841;DHT22;47773;53.174;6.614;2023-02-23T05:30:15;8.50;99.90
61841;DHT22;47773;53.174;6.614;2023-02-23T05:32:41;8.50;99.90
61841;DHT22;47773;53.174;6.614;2023-02-23T05:35:07;8.50;99.90
61841;DHT22;47773;53.174;6.614;2023-02-23T05:37:33;8.50;99.90
61841;DHT22;47773;53.174;6.614;2023-02-23T05:39:59;8.50;99.90
61841;DHT22;47773;53.174;6.614;2023-02-23T05:42:25;8.50;99.90
61841;DHT22;47773;53.174;6.614;2023-02-23T05:44:50;8.50;99.90
61841;DHT22;47773;53.174;6.614;2023-02-23T05:47:16;8.50;99.90
61841;DHT22;47773;53.174;6.614;2023-02-23T05:49:42;8.50;99.90
61841;DHT22;47773;53.174;6.614;2023-02-23T05:52:08;8.50;99.90
61841;DHT22;47773;53.174;6.614;2023-02-23T05:54:34;8.50;99.90
61841;DHT22;47773;53.174;6.614;2023-02-23T05:57:00;8.50;99.90
61841;DHT22;47773;53.174;6.614;2023-02-23T05:59:25;8.50;99.90
61841;DHT22;47773;53.174;6.614;2023-02-23T06:01:51;8.50;99.90
61841;DHT22;47773;53.174;6.614;2023-02-23T06:04:17;8.50;99.90
61841;DHT22;47773;53.174;6.614;2023-02-23T06:06:43;8.50;99.90
61841;DHT22;47773;53.174;6.614;2023-02-23T06:09:09;8.50;99.90
61841;DHT22;47773;53.174;6.614;2023-02-23T06:11:35;8.50;99.90
61841;DHT22;47773;53.174;6.614;2023-02-23T06:14:01;8.50;99.90
61841;DHT22;47773;53.174;6.614;2023-02-23T06:16:27;8.50;99.90
61841;DHT22;47773;53.174;6.614;2023-02-23T06:18:53;8.50;99.90
61841;DHT22;47773;53.174;6.614;2023-02-23T06:21:18;8.50;99.90
61841;DHT22;47773;53.174;6.614;2023-02-23T06:23:45;8.50;99.90
61841;DHT22;47773;53.174;6.614;2023-02-23T06:26:10;8.50;99.90
61841;DHT22;47773;53.174;6.614;2023-02-23T06:28:36;8.50;99.90
61841;DHT22;47773;53.174;6.614;2023-02-23T06:31:03;8.50;99.90
61841;DHT22;47773;53.174;6.614;2023-02-23T06:33:29;8.50;99.90
61841;DHT22;47773;53.174;6.614;2023-02-23T06:35:54;8.50;99.90
61841;DHT22;47773;53.174;6.614;2023-02-23T06:38:20;8.50;99.90
61841;DHT22;47773;53.174;6.614;2023-02-23T06:40:46;8.40;99.90
61841;DHT22;47773;53.174;6.614;2023-02-23T06:43:12;8.50;99.90
61841;DHT22;47773;53.174;6.614;2023-02-23T06:45:37;8.50;99.90
61841;DHT22;47773;53.174;6.614;2023-02-23T06:48:03;8.50;99.90
61841;DHT22;47773;53.174;6.614;2023-02-23T06:50:29;8.50;99.90
61841;DHT22;47773;53.174;6.614;2023-02-23T06:52:55;8.50;99.90
61841;DHT22;47773;53.174;6.614;2023-02-23T06:55:22;8.50;99.90
61841;DHT22;47773;53.174;6.614;2023-02-23T06:57:49;8.50;99.90
61841;DHT22;47773;53.174;6.614;2023-02-23T07:00:16;8.50;99.90
61841;DHT22;47773;53.174;6.614;2023-02-23T07:02:42;8.50;99.90
61841;DHT22;47773;53.174;6.614;2023-02-23T07:05:09;8.50;99.90
61841;DHT22;47773;53.174;6.614;2023-02-23T07:07:34;8.50;99.90
61841;DHT22;47773;53.174;6.614;2023-02-23T07:10:00;8.50;99.90
61841;DHT22;47773;53.174;6.614;2023-02-23T07:12:26;8.50;99.90
61841;DHT22;47773;53.174;6.614;2023-02-23T07:14:51;8.50;99.90
61841;DHT22;47773;53.174;6.614;2023-02-23T07:17:17;8.50;99.90
61841;DHT22;47773;53.174;6.614;2023-02-23T07:19:45;8.40;99.90
61841;DHT22;47773;53.174;6.614;2023-02-23T07:22:11;8.40;99.90
61841;DHT22;47773;53.174;6.614;2023-02-23T07:24:36;8.40;99.90
61841;DHT22;47773;53.174;6.614;2023-02-23T07:27:03;8.40;99.90
61841;DHT22;47773;53.174;6.614;2023-02-23T07:29:29;8.40;99.90
61841;DHT22;47773;53.174;6.614;2023-02-23T07:31:54;8.40;99.90
61841;DHT22;47773;53.174;6.614;2023-02-23T07:34:20;8.40;99.90
61841;DHT22;47773;53.174;6.614;2023-02-23T07:36:47;8.50;99.90
61841;DHT22;47773;53.174;6.614;2023-02-23T07:39:13;8.40;99.90
61841;DHT22;47773;53.174;6.614;2023-02-23T07:41:39;8.40;99.90
61841;DHT22;47773;53.174;6.614;2023-02-23T07:44:04;8.40;99.90
61841;DHT22;47773;53.174;6.614;2023-02-23T07:46:30;8.40;99.90
61841;DHT22;47773;53.174;6.614;2023-02-23T07:48:56;8.50;99.90
61841;DHT22;47773;53.174;6.614;2023-02-23T07:51:22;8.50;99.90
61841;DHT22;47773;53.174;6.614;2023-02-23T07:53:47;8.50;99.90
61841;DHT22;47773;53.174;6.614;2023-02-23T07:56:13;8.50;99.90
61841;DHT22;47773;53.174;6.614;2023-02-23T07:58:41;8.50;99.90
61841;DHT22;47773;53.174;6.614;2023-02-23T08:01:08;8.50;99.90
61841;DHT22;47773;53.174;6.614;2023-02-23T08:03:34;8.50;99.90
61841;DHT22;47773;53.174;6.614;2023-02-23T08:05:59;8.50;99.90
61841;DHT22;47773;53.174;6.614;2023-02-23T08:08:26;8.50;99.90
61841;DHT22;47773;53.174;6.614;2023-02-23T08:11:02;8.50;99.90
61841;DHT22;47773;53.174;6.614;2023-02-23T08:13:30;8.60;99.90
61841;DHT22;47773;53.174;6.614;2023-02-23T08:15:57;8.50;99.90
61841;DHT22;47773;53.174;6.614;2023-02-23T08:18:23;8.60;99.90
61841;DHT22;47773;53.174;6.614;2023-02-23T08:20:49;8.60;99.90
61841;DHT22;47773;53.174;6.614;2023-02-23T08:23:15;8.60;99.90
61841;DHT22;47773;53.174;6.614;2023-02-23T08:25:43;8.60;99.90
61841;DHT22;47773;53.174;6.614;2023-02-23T08:28:08;8.60;99.90
61841;DHT22;47773;53.174;6.614;2023-02-23T08:30:34;8.50;99.90
61841;DHT22;47773;53.174;6.614;2023-02-23T08:33:00;8.60;99.90
61841;DHT22;47773;53.174;6.614;2023-02-23T08:35:27;8.60;99.90
61841;DHT22;47773;53.174;6.614;2023-02-23T08:37:54;8.60;99.90
61841;DHT22;47773;53.174;6.614;2023-02-23T08:40:22;8.60;99.90
61841;DHT22;47773;53.174;6.614;2023-02-23T08:42:47;8.60;99.90
61841;DHT22;47773;53.174;6.614;2023-02-23T08:45:14;8.60;99.90
61841;DHT22;47773;53.174;6.614;2023-02-23T08:47:40;8.60;99.90
61841;DHT22;47773;53.174;6.614;2023-02-23T08:50:06;8.60;99.90
61841;DHT22;47773;53.174;6.614;2023-02-23T08:52:36;8.60;99.90
61841;DHT22;47773;53.174;6.614;2023-02-23T08:55:03;8.50;99.90
61841;DHT22;47773;53.174;6.614;2023-02-23T08:57:34;8.50;99.90
61841;DHT22;47773;53.174;6.614;2023-02-23T09:00:00;8.50;99.90
61841;DHT22;47773;53.174;6.614;2023-02-23T09:02:27;8.50;99.90
61841;DHT22;47773;53.174;6.614;2023-02-23T09:04:53;8.50;99.90
61841;DHT22;47773;53.174;6.614;2023-02-23T09:07:21;8.50;99.90
61841;DHT22;47773;53.174;6.614;2023-02-23T09:09:56;8.50;99.90
61841;DHT22;47773;53.174;6.614;2023-02-23T09:12:22;8.40;99.90
61841;DHT22;47773;53.174;6.614;2023-02-23T09:14:48;8.40;99.90
61841;DHT22;47773;53.174;6.614;2023-02-23T09:17:16;8.40;99.90
61841;DHT22;47773;53.174;6.614;2023-02-23T09:19:42;8.40;99.90
61841;DHT22;47773;53.174;6.614;2023-02-23T09:22:08;8.40;99.90
61841;DHT22;47773;53.174;6.614;2023-02-23T09:24:34;8.50;99.90
61841;DHT22;47773;53.174;6.614;2023-02-23T09:27:00;8.50;99.90
61841;DHT22;47773;53.174;6.614;2023-02-23T09:29:27;8.50;99.90
61841;DHT22;47773;53.174;6.614;2023-02-23T09:31:52;8.50;99.90
61841;DHT22;47773;53.174;6.614;2023-02-23T09:34:22;8.50;99.90
61841;DHT22;47773;53.174;6.614;2023-02-23T09:36:48;8.60;99.90
61841;DHT22;47773;53.174;6.614;2023-02-23T09:39:13;8.50;99.90
61841;DHT22;47773;53.174;6.614;2023-02-23T09:45:12;8.70;99.90
61841;DHT22;47773;53.174;6.614;2023-02-23T09:50:30;8.80;99.90
61841;DHT22;47773;53.174;6.614;2023-02-23T09:53:01;8.80;99.90
61841;DHT22;47773;53.174;6.614;2023-02-23T09:55:27;8.90;99.90
61841;DHT22;47773;53.174;6.614;2023-02-23T09:57:57;9.00;99.90
61841;DHT22;47773;53.174;6.614;2023-02-23T10:00:28;9.00;99.90
61841;DHT22;47773;53.174;6.614;2023-02-23T10:05:59;9.10;99.90
61841;DHT22;47773;53.174;6.614;2023-02-23T10:11:43;9.20;99.90
61841;DHT22;47773;53.174;6.614;2023-02-23T10:22:27;9.30;99.90
61841;DHT22;47773;53.174;6.614;2023-02-23T10:25:05;9.40;99.90
61841;DHT22;47773;53.174;6.614;2023-02-23T10:27:39;9.40;99.90
61841;DHT22;47773;53.174;6.614;2023-02-23T10:30:18;9.40;99.90
61841;DHT22;47773;53.174;6.614;2023-02-23T10:32:57;9.40;99.90
61841;DHT22;47773;53.174;6.614;2023-02-23T10:35:27;9.40;99.90
61841;DHT22;47773;53.174;6.614;2023-02-23T10:37:55;9.40;99.90
61841;DHT22;47773;53.174;6.614;2023-02-23T10:40:23;9.30;99.90
61841;DHT22;47773;53.174;6.614;2023-02-23T10:42:51;9.30;99.90
61841;DHT22;47773;53.174;6.614;2023-02-23T10:45:23;9.30;99.90
61841;DHT22;47773;53.174;6.614;2023-02-23T10:48:04;9.30;99.90
61841;DHT22;47773;53.174;6.614;2023-02-23T10:50:32;9.20;99.90
61841;DHT22;47773;53.174;6.614;2023-02-23T10:53:00;9.20;99.90
61841;DHT22;47773;53.174;6.614;2023-02-23T10:55:30;9.20;99.90
61841;DHT22;47773;53.174;6.614;2023-02-23T10:58:07;9.20;99.90
61841;DHT22;47773;53.174;6.614;2023-02-23T11:00:38;9.20;99.90
61841;DHT22;47773;53.174;6.614;2023-02-23T11:03:19;9.30;99.90
61841;DHT22;47773;53.174;6.614;2023-02-23T11:05:48;9.30;99.90
61841;DHT22;47773;53.174;6.614;2023-02-23T11:13:26;9.30;99.90
61841;DHT22;47773;53.174;6.614;2023-02-23T11:16:00;9.20;99.90
61841;DHT22;47773;53.174;6.614;2023-02-23T11:18:27;9.30;99.90
61841;DHT22;47773;53.174;6.614;2023-02-23T11:20:54;9.20;99.90
61841;DHT22;47773;53.174;6.614;2023-02-23T11:23:28;9.20;99.90
61841;DHT22;47773;53.174;6.614;2023-02-23T11:26:01;9.20;99.90
61841;DHT22;47773;53.174;6.614;2023-02-23T11:28:33;9.20;99.90
61841;DHT22;47773;53.174;6.614;2023-02-23T11:31:08;9.20;99.90
61841;DHT22;47773;53.174;6.614;2023-02-23T11:33:38;9.30;99.90
61841;DHT22;47773;53.174;6.614;2023-02-23T11:38:38;9.20;99.90
61841;DHT22;47773;53.174;6.614;2023-02-23T11:41:23;9.30;99.90
61841;DHT22;47773;53.174;6.614;2023-02-23T11:43:55;9.30;99.90
61841;DHT22;47773;53.174;6.614;2023-02-23T11:46:21;9.30;99.90
61841;DHT22;47773;53.174;6.614;2023-02-23T11:51:28;9.30;99.90
61841;DHT22;47773;53.174;6.614;2023-02-23T11:53:54;9.30;99.90
61841;DHT22;47773;53.174;6.614;2023-02-23T11:56:23;9.20;99.90
61841;DHT22;47773;53.174;6.614;2023-02-23T12:01:33;9.20;99.90
61841;DHT22;47773;53.174;6.614;2023-02-23T12:04:00;9.20;99.90
61841;DHT22;47773;53.174;6.614;2023-02-23T12:06:30;9.20;99.90
61841;DHT22;47773;53.174;6.614;2023-02-23T12:11:56;9.30;99.90
61841;DHT22;47773;53.174;6.614;2023-02-23T12:14:39;9.20;99.90
61841;DHT22;47773;53.174;6.614;2023-02-23T12:17:15;9.20;99.90
61841;DHT22;47773;53.174;6.614;2023-02-23T12:20:05;9.20;99.90
61841;DHT22;47773;53.174;6.614;2023-02-23T12:22:39;9.20;99.90
61841;DHT22;47773;53.174;6.614;2023-02-23T12:26:02;9.10;99.90
61841;DHT22;47773;53.174;6.614;2023-02-23T12:28:34;9.10;99.90
61841;DHT22;47773;53.174;6.614;2023-02-23T12:33:58;9.10;99.90
61841;DHT22;47773;53.174;6.614;2023-02-23T12:36:40;9.10;99.90
61841;DHT22;47773;53.174;6.614;2023-02-23T12:41:49;9.20;99.90
61841;DHT22;47773;53.174;6.614;2023-02-23T12:44:25;9.20;99.90
61841;DHT22;47773;53.174;6.614;2023-02-23T12:46:59;9.20;99.90
61841;DHT22;47773;53.174;6.614;2023-02-23T12:49:35;9.10;99.90
61841;DHT22;47773;53.174;6.614;2023-02-23T12:52:06;9.10;99.90
61841;DHT22;47773;53.174;6.614;2023-02-23T12:54:36;9.10;99.90
61841;DHT22;47773;53.174;6.614;2023-02-23T12:57:21;9.10;99.90
61841;DHT22;47773;53.174;6.614;2023-02-23T13:05:42;9.10;99.90
61841;DHT22;47773;53.174;6.614;2023-02-23T13:08:37;9.20;99.90
61841;DHT22;47773;53.174;6.614;2023-02-23T13:13:59;9.20;99.90
61841;DHT22;47773;53.174;6.614;2023-02-23T13:19:04;9.20;99.90
61841;DHT22;47773;53.174;6.614;2023-02-23T13:24:39;9.10;99.90
61841;DHT22;47773;53.174;6.614;2023-02-23T13:27:21;8.90;99.90
61841;DHT22;47773;53.174;6.614;2023-02-23T13:29:50;8.70;99.90
61841;DHT22;47773;53.174;6.614;2023-02-23T13:32:28;8.50;99.90
61841;DHT22;47773;53.174;6.614;2023-02-23T13:34:57;8.40;99.90
61841;DHT22;47773;53.174;6.614;2023-02-23T13:48:46;8.00;99.90
61841;DHT22;47773;53.174;6.614;2023-02-23T13:51:33;8.00;99.90
61841;DHT22;47773;53.174;6.614;2023-02-23T13:54:04;7.90;99.90
61841;DHT22;47773;53.174;6.614;2023-02-23T13:56:39;7.90;99.90
61841;DHT22;47773;53.174;6.614;2023-02-23T13:59:14;7.90;99.90
61841;DHT22;47773;53.174;6.614;2023-02-23T14:01:44;7.90;99.90
61841;DHT22;47773;53.174;6.614;2023-02-23T14:04:20;7.80;99.90
61841;DHT22;47773;53.174;6.614;2023-02-23T14:09:56;7.70;99.90
61841;DHT22;47773;53.174;6.614;2023-02-23T14:17:58;7.70;99.90
61841;DHT22;47773;53.174;6.614;2023-02-23T14:25:51;7.60;99.90
61841;DHT22;47773;53.174;6.614;2023-02-23T14:39:00;7.70;99.90
61841;DHT22;47773;53.174;6.614;2023-02-23T14:41:53;7.70;99.90
61841;DHT22;47773;53.174;6.614;2023-02-23T14:44:36;7.60;99.90
61841;DHT22;47773;53.174;6.614;2023-02-23T14:47:17;7.60;99.90
61841;DHT22;47773;53.174;6.614;2023-02-23T14:52:39;7.50;99.90
61841;DHT22;47773;53.174;6.614;2023-02-23T14:57:41;7.50;99.90
61841;DHT22;47773;53.174;6.614;2023-02-23T15:00:18;7.50;99.90
61841;DHT22;47773;53.174;6.614;2023-02-23T15:03:02;7.50;99.90
61841;DHT22;47773;53.174;6.614;2023-02-23T15:08:06;7.50;99.90
61841;DHT22;47773;53.174;6.614;2023-02-23T15:10:40;7.50;99.90
61841;DHT22;47773;53.174;6.614;2023-02-23T15:13:17;7.50;99.90
61841;DHT22;47773;53.174;6.614;2023-02-23T15:15:45;7.50;99.90
61841;DHT22;47773;53.174;6.614;2023-02-23T15:18:26;7.60;99.90
61841;DHT22;47773;53.174;6.614;2023-02-23T15:20:54;7.60;99.90
61841;DHT22;47773;53.174;6.614;2023-02-23T15:23:20;7.60;99.90
61841;DHT22;47773;53.174;6.614;2023-02-23T15:25:46;7.60;99.90
61841;DHT22;47773;53.174;6.614;2023-02-23T15:28:26;7.50;99.90
61841;DHT22;47773;53.174;6.614;2023-02-23T15:30:58;7.60;99.90
61841;DHT22;47773;53.174;6.614;2023-02-23T15:33:24;7.50;99.90
61841;DHT22;47773;53.174;6.614;2023-02-23T15:35:54;7.60;99.90
61841;DHT22;47773;53.174;6.614;2023-02-23T15:38:27;7.60;99.90
61841;DHT22;47773;53.174;6.614;2023-02-23T15:41:05;7.60;99.90
61841;DHT22;47773;53.174;6.614;2023-02-23T15:43:32;7.60;99.90
61841;DHT22;47773;53.174;6.614;2023-02-23T15:46:04;7.60;99.90
61841;DHT22;47773;53.174;6.614;2023-02-23T15:48:45;7.60;99.90
61841;DHT22;47773;53.174;6.614;2023-02-23T15:51:21;7.60;99.90
61841;DHT22;47773;53.174;6.614;2023-02-23T15:53:49;7.60;99.90
61841;DHT22;47773;53.174;6.614;2023-02-23T15:56:24;7.60;99.90
61841;DHT22;47773;53.174;6.614;2023-02-23T15:58:54;7.70;99.90
61841;DHT22;47773;53.174;6.614;2023-02-23T16:01:25;7.60;99.90
61841;DHT22;47773;53.174;6.614;2023-02-23T16:04:15;7.60;99.90
61841;DHT22;47773;53.174;6.614;2023-02-23T16:07:05;7.60;99.90
61841;DHT22;47773;53.174;6.614;2023-02-23T16:09:30;7.50;99.90
61841;DHT22;47773;53.174;6.614;2023-02-23T16:12:11;7.50;99.90
61841;DHT22;47773;53.174;6.614;2023-02-23T16:14:42;7.50;99.90
61841;DHT22;47773;53.174;6.614;2023-02-23T16:17:44;7.40;99.90
61841;DHT22;47773;53.174;6.614;2023-02-23T16:20:15;7.50;99.90
61841;DHT22;47773;53.174;6.614;2023-02-23T16:22:43;7.40;99.90
61841;DHT22;47773;53.174;6.614;2023-02-23T16:25:18;7.40;99.90
61841;DHT22;47773;53.174;6.614;2023-02-23T16:27:45;7.40;99.90
61841;DHT22;47773;53.174;6.614;2023-02-23T16:30:21;7.40;99.90
61841;DHT22;47773;53.174;6.614;2023-02-23T16:33:25;7.40;99.90
61841;DHT22;47773;53.174;6.614;2023-02-23T16:36:04;7.30;99.90
61841;DHT22;47773;53.174;6.614;2023-02-23T16:38:40;7.30;99.90
61841;DHT22;47773;53.174;6.614;2023-02-23T16:41:14;7.30;99.90
61841;DHT22;47773;53.174;6.614;2023-02-23T16:43:42;7.20;99.90
61841;DHT22;47773;53.174;6.614;2023-02-23T16:46:09;7.20;99.90
61841;DHT22;47773;53.174;6.614;2023-02-23T16:48:34;7.20;99.90
61841;DHT22;47773;53.174;6.614;2023-02-23T16:51:00;7.20;99.90
61841;DHT22;47773;53.174;6.614;2023-02-23T16:53:27;7.20;99.90
61841;DHT22;47773;53.174;6.614;2023-02-23T16:55:54;7.20;99.90
61841;DHT22;47773;53.174;6.614;2023-02-23T16:58:25;7.20;99.90
61841;DHT22;47773;53.174;6.614;2023-02-23T17:00:52;7.10;99.90
61841;DHT22;47773;53.174;6.614;2023-02-23T17:03:22;7.10;99.90
61841;DHT22;47773;53.174;6.614;2023-02-23T17:05:49;7.10;99.90
61841;DHT22;47773;53.174;6.614;2023-02-23T17:08:15;7.10;99.90
61841;DHT22;47773;53.174;6.614;2023-02-23T17:10:42;7.20;99.90
61841;DHT22;47773;53.174;6.614;2023-02-23T17:15:42;7.20;99.90
61841;DHT22;47773;53.174;6.614;2023-02-23T17:18:12;7.20;99.90
61841;DHT22;47773;53.174;6.614;2023-02-23T17:20:38;7.10;99.90
61841;DHT22;47773;53.174;6.614;2023-02-23T17:23:04;7.20;99.90
61841;DHT22;47773;53.174;6.614;2023-02-23T17:25:32;7.20;99.90
61841;DHT22;47773;53.174;6.614;2023-02-23T17:27:58;7.10;99.90
61841;DHT22;47773;53.174;6.614;2023-02-23T17:30:24;7.00;99.90
61841;DHT22;47773;53.174;6.614;2023-02-23T17:32:51;7.00;99.90
61841;DHT22;47773;53.174;6.614;2023-02-23T17:35:18;7.00;99.90
61841;DHT22;47773;53.174;6.614;2023-02-23T17:37:43;7.00;99.90
61841;DHT22;47773;53.174;6.614;2023-02-23T17:40:14;7.00;99.90
61841;DHT22;47773;53.174;6.614;2023-02-23T17:42:42;7.00;99.90
61841;DHT22;47773;53.174;6.614;2023-02-23T17:45:09;7.00;99.90
61841;DHT22;47773;53.174;6.614;2023-02-23T17:47:35;7.00;99.90
61841;DHT22;47773;53.174;6.614;2023-02-23T17:50:04;7.00;99.90
61841;DHT22;47773;53.174;6.614;2023-02-23T17:52:30;7.00;99.90
61841;DHT22;47773;53.174;6.614;2023-02-23T17:54:55;6.90;99.90
61841;DHT22;47773;53.174;6.614;2023-02-23T17:57:22;6.90;99.90
61841;DHT22;47773;53.174;6.614;2023-02-23T17:59:48;6.90;99.90
61841;DHT22;47773;53.174;6.614;2023-02-23T18:02:17;6.90;99.90
61841;DHT22;47773;53.174;6.614;2023-02-23T18:04:50;6.80;99.90
61841;DHT22;47773;53.174;6.614;2023-02-23T18:07:17;6.90;99.90
61841;DHT22;47773;53.174;6.614;2023-02-23T18:09:44;6.80;99.90
61841;DHT22;47773;53.174;6.614;2023-02-23T18:12:15;6.70;99.90
61841;DHT22;47773;53.174;6.614;2023-02-23T18:14:40;6.70;99.90
61841;DHT22;47773;53.174;6.614;2023-02-23T18:17:07;6.60;99.90
61841;DHT22;47773;53.174;6.614;2023-02-23T18:19:33;6.60;99.90
61841;DHT22;47773;53.174;6.614;2023-02-23T18:22:00;6.50;99.90
61841;DHT22;47773;53.174;6.614;2023-02-23T18:24:26;6.50;99.90
61841;DHT22;47773;53.174;6.614;2023-02-23T18:26:52;6.60;99.90